Terminal Aerodrome Forecast
Issued by NWS

Home | Current Version | Previous Version | Text Only | Print | Product List | Glossary On
Versions: 1 2 3 4 5 6 7 8 9 10 11 12 13
000
FTUS44 KBMX 271738
TAFTOI
TAF
KTOI 271738Z 2718/2818 28007KT P6SM SCT020 BKN024 BKN030
     FM272200 23007KT P6SM SCT030
     FM280200 VRB03KT P6SM SKC
     FM280300 18003KT 2SM BR SCT002 OVC005=

USA.gov is the U.S. government's official web portal to all federal, state and local government web resources and services.